Sunday, July 22, 2018, 10:28 AM EDT
Back to Local

KDAW, Skyhaven Airport

Location: Rochester, NH, United States Lat: 43.283
Local Time: 10:28 AM EDT (14:28 GMT) Lon: -70.917
Time Zone: US/Eastern Elev: 321 ft

Show me the last for .
Show Decoded

2018-07-22 10:23 METAR KDAW 221423Z AUTO 06007KT 020V090 2SM -RA BR OVC004 17/17 A3013 RMK AO2
                 RAB1357 P0001 T01670167 =
2018-07-22 10:12 METAR KDAW 221412Z AUTO 06007KT 2SM -RA BR OVC005 17/17 A3013 RMK AO2 RAB1357
                 P0001 T01670167 =
2018-07-22 09:51 METAR KDAW 221351Z AUTO 06007KT 7SM OVC005 17/17 A3014 RMK AO2 RAB06E50 CIG
                 003V010 SLP202 P0011 T01670167 =
2018-07-22 09:26 METAR KDAW 221326Z AUTO 06006KT 3SM -RA BR OVC005 17/17 A3013 RMK AO2 RAB06
                 P0011 T01670167 =
2018-07-22 09:14 METAR KDAW 221314Z AUTO 08006KT 1 1/2SM +RA BR OVC005 17/17 A3014 RMK AO2 RAB06
                 P0008 T01670167 =
2018-07-22 08:51 METAR KDAW 221251Z AUTO VRB05KT 9SM OVC007 17/17 A3013 RMK AO2 RAB06E37 SLP201
                 P0003 T01720167 =
2018-07-22 08:34 METAR KDAW 221234Z AUTO 05006KT 3SM -RA BR OVC007 17/17 A3013 RMK AO2 RAB06 CIG
                 006V010 P0003 T01720167 =
2018-07-22 08:25 METAR KDAW 221225Z AUTO 05004KT 1 3/4SM RA BR OVC007 17/17 A3014 RMK AO2 RAB06
                 CIG 006V010 P0003 T01720167 =
2018-07-22 07:51 METAR KDAW 221151Z AUTO 06008G15KT 9SM OVC007 17/16 A3013 RMK AO2 RAB38E47
                 SLP201 P0000 60000 T01720161 10172 20139 53002 =
2018-07-22 06:51 METAR KDAW 221051Z AUTO 06004KT 10SM BKN009 OVC012 17/16 A3013 RMK AO2 CIG
                 006V011 SLP199 T01670161 =
2018-07-22 06:08 METAR KDAW 221008Z AUTO 04004KT 10SM BKN007 OVC070 16/16 A3013 RMK AO2 T01610156
                 =
2018-07-22 05:51 METAR KDAW 220951Z AUTO VRB04KT 10SM FEW007 OVC070 16/16 A3013 RMK AO2 SLP197
                 T01610156 =
2018-07-22 05:17 METAR KDAW 220917Z AUTO 03004KT 10SM FEW009 OVC075 16/16 A3013 RMK AO2 T01560156
                 =
2018-07-22 04:51 METAR KDAW 220851Z AUTO 00000KT 10SM OVC080 16/15 A3013 RMK AO2 SLP198 T01560150
                 51002 =
2018-07-22 03:51 METAR KDAW 220751Z AUTO 04003KT 10SM FEW012 OVC080 15/15 A3013 RMK AO2 SLP197
                 T01500150 =
2018-07-22 03:28 METAR KDAW 220728Z AUTO 00000KT 10SM SCT014 BKN080 14/14 A3013 RMK AO2 T01440144
                 =
2018-07-22 02:51 METAR KDAW 220651Z AUTO 00000KT 10SM BKN014 15/14 A3013 RMK AO2 SLP198 T01500144
                 =
2018-07-22 01:51 METAR KDAW 220551Z AUTO 00000KT 10SM OVC014 14/14 A3012 RMK AO2 SLP196 T01390139
                 10194 20133 56011 =
2018-07-22 01:42 METAR KDAW 220542Z AUTO 35003KT 10SM BKN014 14/14 A3012 RMK AO2 T01390139 =
2018-07-22 00:51 METAR KDAW 220451Z AUTO 35003KT 10SM BKN015 14/14 A3013 RMK AO2 SLP198 T01390139
                 402560111 =
2018-07-22 00:30 METAR KDAW 220430Z AUTO 33003KT 9SM BKN016 14/14 A3014 RMK AO2 T01440144 =
2018-07-22 00:05 METAR KDAW 220405Z AUTO 32003KT 10SM SCT014 SCT050 13/13 A3015 RMK AO2 T01330128
                 =
2018-07-21 23:51 METAR KDAW 220351Z AUTO 00000KT 10SM BKN013 BKN050 15/15 A3015 RMK AO2 SLP204
                 T01500150 =
2018-07-21 23:44 METAR KDAW 220344Z AUTO 00000KT 10SM BKN013 15/14 A3015 RMK AO2 T01500144 =
2018-07-21 22:51 METAR KDAW 220251Z AUTO 00000KT 10SM CLR 16/15 A3016 RMK AO2 SLP207 T01560150
                 58001 =
2018-07-21 21:51 METAR KDAW 220151Z AUTO 00000KT 10SM CLR 16/14 A3016 RMK AO2 SLP209 T01560144 =
2018-07-21 20:51 METAR KDAW 220051Z AUTO 00000KT 10SM CLR 17/14 A3016 RMK AO2 SLP210 T01720144 =
2018-07-21 19:51 METAR KDAW 212351Z AUTO 14004KT 10SM CLR 19/15 A3016 RMK AO2 SLP209 T01940150
                 10256 20189 53007 =
2018-07-21 18:51 METAR KDAW 212251Z AUTO 11005KT 10SM CLR 21/12 A3014 RMK AO2 SLP204 T02060122 =
2018-07-21 17:51 METAR KDAW 212151Z AUTO 12008KT 10SM CLR 22/12 A3013 RMK AO2 SLP200 T02170122 =
2018-07-21 16:51 METAR KDAW 212051Z AUTO 13007KT 10SM CLR 24/13 A3013 RMK AO2 SLP201 T02390133
                 58008 =
2018-07-21 15:51 METAR KDAW 211951Z AUTO 14007KT 10SM CLR 25/14 A3015 RMK AO2 SLP204 T02500139 =
2018-07-21 14:51 METAR KDAW 211851Z AUTO 14007KT 110V170 10SM CLR 26/14 A3015 RMK AO2 SLP207
                 T02560144 =
2018-07-21 13:51 METAR KDAW 211751Z AUTO 17007KT 10SM CLR 25/14 A3016 RMK AO2 SLP209 T02500139
                 10256 20172 58006 =
2018-07-21 12:51 METAR KDAW 211651Z AUTO 17005KT 10SM CLR 25/14 A3018 RMK AO2 SLP215 T02500139 =
2018-07-21 11:51 METAR KDAW 211551Z AUTO 16006KT 10SM FEW038 25/15 A3018 RMK AO2 SLP215 T02500150
                 =
2018-07-21 10:51 METAR KDAW 211451Z AUTO VRB03KT 10SM FEW038 24/14 A3018 RMK AO2 SLP216 T02390144
                 51001 =

Support USWX by starting your Amazon purchase here.